sensor_id;sensor_type;location;lat;lon;timestamp;P1;durP1;ratioP1;P2;durP2;ratioP2
8333;SDS011;4204;43.004;23.052;2022-10-24T00:02:03;2.20;;;1.87;;
8333;SDS011;4204;43.004;23.052;2022-10-24T00:04:34;4.60;;;2.40;;
8333;SDS011;4204;43.004;23.052;2022-10-24T00:07:03;2.70;;;2.20;;
8333;SDS011;4204;43.004;23.052;2022-10-24T00:09:33;2.70;;;2.13;;
8333;SDS011;4204;43.004;23.052;2022-10-24T00:12:03;2.60;;;2.00;;
8333;SDS011;4204;43.004;23.052;2022-10-24T00:14:32;3.37;;;2.20;;
8333;SDS011;4204;43.004;23.052;2022-10-24T00:17:00;2.80;;;2.20;;
8333;SDS011;4204;43.004;23.052;2022-10-24T00:19:29;3.00;;;2.10;;
8333;SDS011;4204;43.004;23.052;2022-10-24T00:21:56;6.13;;;2.20;;
8333;SDS011;4204;43.004;23.052;2022-10-24T00:24:24;2.93;;;2.20;;
8333;SDS011;4204;43.004;23.052;2022-10-24T00:26:53;2.40;;;2.13;;
8333;SDS011;4204;43.004;23.052;2022-10-24T00:29:21;3.43;;;2.30;;
8333;SDS011;4204;43.004;23.052;2022-10-24T00:31:48;3.27;;;2.13;;
8333;SDS011;4204;43.004;23.052;2022-10-24T00:34:16;3.30;;;2.27;;
8333;SDS011;4204;43.004;23.052;2022-10-24T00:36:44;2.60;;;2.10;;
8333;SDS011;4204;43.004;23.052;2022-10-24T00:39:11;3.50;;;2.63;;
8333;SDS011;4204;43.004;23.052;2022-10-24T00:41:40;4.20;;;3.33;;
8333;SDS011;4204;43.004;23.052;2022-10-24T00:44:17;3.77;;;2.47;;
8333;SDS011;4204;43.004;23.052;2022-10-24T00:46:48;2.20;;;2.00;;
8333;SDS011;4204;43.004;23.052;2022-10-24T00:49:20;3.13;;;2.23;;
8333;SDS011;4204;43.004;23.052;2022-10-24T00:51:52;4.07;;;2.90;;
8333;SDS011;4204;43.004;23.052;2022-10-24T00:54:21;2.90;;;2.60;;
8333;SDS011;4204;43.004;23.052;2022-10-24T00:56:59;3.87;;;2.30;;
8333;SDS011;4204;43.004;23.052;2022-10-24T00:59:31;3.43;;;2.50;;
8333;SDS011;4204;43.004;23.052;2022-10-24T01:02:01;7.10;;;2.93;;
8333;SDS011;4204;43.004;23.052;2022-10-24T01:04:29;3.17;;;2.50;;
8333;SDS011;4204;43.004;23.052;2022-10-24T01:07:03;4.27;;;2.53;;
8333;SDS011;4204;43.004;23.052;2022-10-24T01:09:45;3.57;;;2.70;;
8333;SDS011;4204;43.004;23.052;2022-10-24T01:12:33;2.87;;;2.40;;
8333;SDS011;4204;43.004;23.052;2022-10-24T01:15:14;3.63;;;2.87;;
8333;SDS011;4204;43.004;23.052;2022-10-24T01:17:50;3.53;;;2.63;;
8333;SDS011;4204;43.004;23.052;2022-10-24T01:20:29;4.33;;;2.83;;
8333;SDS011;4204;43.004;23.052;2022-10-24T01:23:19;2.77;;;2.37;;
8333;SDS011;4204;43.004;23.052;2022-10-24T01:26:04;3.53;;;2.60;;
8333;SDS011;4204;43.004;23.052;2022-10-24T01:28:43;3.80;;;3.10;;
8333;SDS011;4204;43.004;23.052;2022-10-24T01:31:22;2.80;;;2.37;;
8333;SDS011;4204;43.004;23.052;2022-10-24T01:33:56;3.13;;;2.40;;
8333;SDS011;4204;43.004;23.052;2022-10-24T01:36:31;3.80;;;2.63;;
8333;SDS011;4204;43.004;23.052;2022-10-24T01:39:05;2.77;;;2.40;;
8333;SDS011;4204;43.004;23.052;2022-10-24T01:41:39;3.83;;;2.50;;
8333;SDS011;4204;43.004;23.052;2022-10-24T01:44:08;3.57;;;2.90;;
8333;SDS011;4204;43.004;23.052;2022-10-24T01:46:43;3.63;;;2.67;;
8333;SDS011;4204;43.004;23.052;2022-10-24T01:49:17;3.47;;;2.40;;
8333;SDS011;4204;43.004;23.052;2022-10-24T01:51:47;4.47;;;2.30;;
8333;SDS011;4204;43.004;23.052;2022-10-24T01:54:19;2.83;;;2.40;;
8333;SDS011;4204;43.004;23.052;2022-10-24T01:56:47;4.17;;;2.47;;
8333;SDS011;4204;43.004;23.052;2022-10-24T02:02:12;2.77;;;2.33;;
8333;SDS011;4204;43.004;23.052;2022-10-24T02:04:47;3.87;;;2.67;;
8333;SDS011;4204;43.004;23.052;2022-10-24T02:07:19;3.17;;;2.47;;
8333;SDS011;4204;43.004;23.052;2022-10-24T02:09:49;3.17;;;2.40;;
8333;SDS011;4204;43.004;23.052;2022-10-24T02:12:22;3.37;;;2.30;;
8333;SDS011;4204;43.004;23.052;2022-10-24T02:14:53;2.97;;;2.40;;
8333;SDS011;4204;43.004;23.052;2022-10-24T02:17:26;3.63;;;2.30;;
8333;SDS011;4204;43.004;23.052;2022-10-24T02:19:54;4.70;;;2.80;;
8333;SDS011;4204;43.004;23.052;2022-10-24T02:22:23;3.23;;;2.63;;
8333;SDS011;4204;43.004;23.052;2022-10-24T02:24:55;3.23;;;2.23;;
8333;SDS011;4204;43.004;23.052;2022-10-24T02:27:28;5.43;;;2.53;;
8333;SDS011;4204;43.004;23.052;2022-10-24T02:30:00;3.67;;;2.87;;
8333;SDS011;4204;43.004;23.052;2022-10-24T02:32:33;3.73;;;2.77;;
8333;SDS011;4204;43.004;23.052;2022-10-24T02:35:04;3.33;;;2.63;;
8333;SDS011;4204;43.004;23.052;2022-10-24T02:37:35;3.17;;;2.50;;
8333;SDS011;4204;43.004;23.052;2022-10-24T02:40:09;3.27;;;2.60;;
8333;SDS011;4204;43.004;23.052;2022-10-24T02:42:40;3.30;;;2.60;;
8333;SDS011;4204;43.004;23.052;2022-10-24T02:45:09;3.80;;;2.63;;
8333;SDS011;4204;43.004;23.052;2022-10-24T02:47:41;3.00;;;2.40;;
8333;SDS011;4204;43.004;23.052;2022-10-24T02:50:11;4.03;;;3.00;;
8333;SDS011;4204;43.004;23.052;2022-10-24T02:52:40;6.37;;;2.93;;
8333;SDS011;4204;43.004;23.052;2022-10-24T02:55:09;4.17;;;2.87;;
8333;SDS011;4204;43.004;23.052;2022-10-24T02:57:38;3.83;;;2.93;;
8333;SDS011;4204;43.004;23.052;2022-10-24T03:00:06;4.50;;;3.03;;
8333;SDS011;4204;43.004;23.052;2022-10-24T03:02:35;4.63;;;2.90;;
8333;SDS011;4204;43.004;23.052;2022-10-24T03:05:04;3.70;;;3.07;;
8333;SDS011;4204;43.004;23.052;2022-10-24T03:07:32;3.60;;;3.17;;
8333;SDS011;4204;43.004;23.052;2022-10-24T03:10:00;4.47;;;3.17;;
8333;SDS011;4204;43.004;23.052;2022-10-24T03:12:28;4.50;;;3.10;;
8333;SDS011;4204;43.004;23.052;2022-10-24T03:14:56;12.30;;;3.77;;
8333;SDS011;4204;43.004;23.052;2022-10-24T03:17:23;20.97;;;4.30;;
8333;SDS011;4204;43.004;23.052;2022-10-24T03:19:51;15.37;;;3.97;;
8333;SDS011;4204;43.004;23.052;2022-10-24T03:22:20;9.90;;;3.63;;
8333;SDS011;4204;43.004;23.052;2022-10-24T03:24:47;8.23;;;3.27;;
8333;SDS011;4204;43.004;23.052;2022-10-24T03:27:15;4.53;;;3.07;;
8333;SDS011;4204;43.004;23.052;2022-10-24T03:29:43;4.30;;;3.03;;
8333;SDS011;4204;43.004;23.052;2022-10-24T03:32:10;4.30;;;3.10;;
8333;SDS011;4204;43.004;23.052;2022-10-24T03:34:38;3.63;;;2.87;;
8333;SDS011;4204;43.004;23.052;2022-10-24T03:37:06;3.97;;;2.70;;
8333;SDS011;4204;43.004;23.052;2022-10-24T03:39:35;3.80;;;2.70;;
8333;SDS011;4204;43.004;23.052;2022-10-24T03:42:02;4.37;;;3.10;;
8333;SDS011;4204;43.004;23.052;2022-10-24T03:44:30;7.23;;;2.97;;
8333;SDS011;4204;43.004;23.052;2022-10-24T03:46:58;6.57;;;3.50;;
8333;SDS011;4204;43.004;23.052;2022-10-24T03:49:26;3.90;;;2.90;;
8333;SDS011;4204;43.004;23.052;2022-10-24T03:51:53;4.50;;;3.20;;
8333;SDS011;4204;43.004;23.052;2022-10-24T03:54:21;5.30;;;2.83;;
8333;SDS011;4204;43.004;23.052;2022-10-24T03:56:50;11.80;;;3.20;;
8333;SDS011;4204;43.004;23.052;2022-10-24T03:59:17;3.30;;;2.93;;
8333;SDS011;4204;43.004;23.052;2022-10-24T04:01:45;5.67;;;3.50;;
8333;SDS011;4204;43.004;23.052;2022-10-24T04:04:13;7.63;;;3.10;;
8333;SDS011;4204;43.004;23.052;2022-10-24T04:06:40;5.67;;;3.10;;
8333;SDS011;4204;43.004;23.052;2022-10-24T04:09:08;4.30;;;3.20;;
8333;SDS011;4204;43.004;23.052;2022-10-24T04:11:36;2.53;;;2.33;;
8333;SDS011;4204;43.004;23.052;2022-10-24T04:14:05;5.37;;;3.40;;
8333;SDS011;4204;43.004;23.052;2022-10-24T04:16:32;3.57;;;3.20;;
8333;SDS011;4204;43.004;23.052;2022-10-24T04:19:01;4.40;;;2.90;;
8333;SDS011;4204;43.004;23.052;2022-10-24T04:21:28;4.70;;;3.60;;
8333;SDS011;4204;43.004;23.052;2022-10-24T04:23:56;7.47;;;3.13;;
8333;SDS011;4204;43.004;23.052;2022-10-24T04:26:24;5.60;;;3.67;;
8333;SDS011;4204;43.004;23.052;2022-10-24T04:28:51;4.23;;;3.07;;
8333;SDS011;4204;43.004;23.052;2022-10-24T04:31:20;6.10;;;3.27;;
8333;SDS011;4204;43.004;23.052;2022-10-24T04:33:48;5.60;;;3.20;;
8333;SDS011;4204;43.004;23.052;2022-10-24T04:36:16;3.17;;;2.60;;
8333;SDS011;4204;43.004;23.052;2022-10-24T04:38:43;3.37;;;2.90;;
8333;SDS011;4204;43.004;23.052;2022-10-24T04:41:11;14.10;;;6.90;;
8333;SDS011;4204;43.004;23.052;2022-10-24T04:43:39;34.87;;;14.47;;
8333;SDS011;4204;43.004;23.052;2022-10-24T04:46:06;58.60;;;24.47;;
8333;SDS011;4204;43.004;23.052;2022-10-24T04:48:35;44.80;;;19.67;;
8333;SDS011;4204;43.004;23.052;2022-10-24T04:51:03;26.07;;;12.50;;
8333;SDS011;4204;43.004;23.052;2022-10-24T04:53:31;19.40;;;10.13;;
8333;SDS011;4204;43.004;23.052;2022-10-24T04:55:59;18.90;;;6.77;;
8333;SDS011;4204;43.004;23.052;2022-10-24T04:58:26;8.43;;;5.30;;
8333;SDS011;4204;43.004;23.052;2022-10-24T05:00:54;8.63;;;4.27;;
8333;SDS011;4204;43.004;23.052;2022-10-24T05:03:22;6.07;;;3.70;;
8333;SDS011;4204;43.004;23.052;2022-10-24T05:05:51;6.77;;;4.20;;
8333;SDS011;4204;43.004;23.052;2022-10-24T05:08:18;6.43;;;4.50;;
8333;SDS011;4204;43.004;23.052;2022-10-24T05:10:46;12.43;;;7.00;;
8333;SDS011;4204;43.004;23.052;2022-10-24T05:13:14;10.57;;;5.17;;
8333;SDS011;4204;43.004;23.052;2022-10-24T05:15:42;9.13;;;5.10;;
8333;SDS011;4204;43.004;23.052;2022-10-24T05:18:10;8.80;;;5.63;;
8333;SDS011;4204;43.004;23.052;2022-10-24T05:20:38;8.77;;;5.10;;
8333;SDS011;4204;43.004;23.052;2022-10-24T05:23:07;7.63;;;4.27;;
8333;SDS011;4204;43.004;23.052;2022-10-24T05:25:35;5.70;;;4.20;;
8333;SDS011;4204;43.004;23.052;2022-10-24T05:28:03;6.63;;;3.83;;
8333;SDS011;4204;43.004;23.052;2022-10-24T05:30:30;10.03;;;4.80;;
8333;SDS011;4204;43.004;23.052;2022-10-24T05:32:58;50.17;;;21.83;;
8333;SDS011;4204;43.004;23.052;2022-10-24T05:35:26;12.63;;;6.33;;
8333;SDS011;4204;43.004;23.052;2022-10-24T05:37:54;9.03;;;5.30;;
8333;SDS011;4204;43.004;23.052;2022-10-24T05:40:23;6.90;;;4.30;;
8333;SDS011;4204;43.004;23.052;2022-10-24T05:42:51;9.33;;;4.77;;
8333;SDS011;4204;43.004;23.052;2022-10-24T05:45:19;6.43;;;3.83;;
8333;SDS011;4204;43.004;23.052;2022-10-24T05:47:47;7.50;;;3.67;;
8333;SDS011;4204;43.004;23.052;2022-10-24T05:50:15;4.33;;;3.87;;
8333;SDS011;4204;43.004;23.052;2022-10-24T05:52:43;5.10;;;4.03;;
8333;SDS011;4204;43.004;23.052;2022-10-24T05:55:10;5.33;;;4.13;;
8333;SDS011;4204;43.004;23.052;2022-10-24T05:57:39;4.73;;;3.87;;
8333;SDS011;4204;43.004;23.052;2022-10-24T06:00:07;6.63;;;4.83;;
8333;SDS011;4204;43.004;23.052;2022-10-24T06:02:38;8.10;;;4.93;;
8333;SDS011;4204;43.004;23.052;2022-10-24T06:05:07;4.67;;;3.93;;
8333;SDS011;4204;43.004;23.052;2022-10-24T06:07:36;5.00;;;4.03;;
8333;SDS011;4204;43.004;23.052;2022-10-24T06:10:04;5.37;;;4.07;;
8333;SDS011;4204;43.004;23.052;2022-10-24T06:12:33;6.20;;;3.87;;
8333;SDS011;4204;43.004;23.052;2022-10-24T06:15:04;4.77;;;4.03;;
8333;SDS011;4204;43.004;23.052;2022-10-24T06:17:33;7.30;;;4.73;;
8333;SDS011;4204;43.004;23.052;2022-10-24T06:20:01;5.23;;;4.03;;
8333;SDS011;4204;43.004;23.052;2022-10-24T06:22:29;5.80;;;4.37;;
8333;SDS011;4204;43.004;23.052;2022-10-24T06:24:57;5.23;;;4.00;;
8333;SDS011;4204;43.004;23.052;2022-10-24T06:27:25;6.07;;;4.53;;
8333;SDS011;4204;43.004;23.052;2022-10-24T06:29:52;5.27;;;4.37;;
8333;SDS011;4204;43.004;23.052;2022-10-24T06:32:21;5.50;;;4.43;;
8333;SDS011;4204;43.004;23.052;2022-10-24T06:34:49;8.97;;;4.77;;
8333;SDS011;4204;43.004;23.052;2022-10-24T06:37:17;11.53;;;7.43;;
8333;SDS011;4204;43.004;23.052;2022-10-24T06:39:44;12.97;;;8.87;;
8333;SDS011;4204;43.004;23.052;2022-10-24T06:42:12;13.77;;;7.43;;
8333;SDS011;4204;43.004;23.052;2022-10-24T06:44:40;13.67;;;8.30;;
8333;SDS011;4204;43.004;23.052;2022-10-24T06:47:08;14.57;;;7.57;;
8333;SDS011;4204;43.004;23.052;2022-10-24T06:49:38;8.70;;;7.00;;
8333;SDS011;4204;43.004;23.052;2022-10-24T06:52:06;12.70;;;7.40;;
8333;SDS011;4204;43.004;23.052;2022-10-24T06:54:33;9.77;;;6.77;;
8333;SDS011;4204;43.004;23.052;2022-10-24T06:57:04;8.63;;;6.57;;
8333;SDS011;4204;43.004;23.052;2022-10-24T06:59:31;8.73;;;6.67;;
8333;SDS011;4204;43.004;23.052;2022-10-24T07:01:59;10.27;;;7.37;;
8333;SDS011;4204;43.004;23.052;2022-10-24T07:04:27;10.50;;;7.20;;
8333;SDS011;4204;43.004;23.052;2022-10-24T07:06:56;10.27;;;7.20;;
8333;SDS011;4204;43.004;23.052;2022-10-24T07:09:25;10.57;;;7.30;;
8333;SDS011;4204;43.004;23.052;2022-10-24T07:11:53;11.97;;;6.60;;
8333;SDS011;4204;43.004;23.052;2022-10-24T07:14:21;10.30;;;7.40;;
8333;SDS011;4204;43.004;23.052;2022-10-24T07:16:50;17.90;;;10.17;;
8333;SDS011;4204;43.004;23.052;2022-10-24T07:19:18;12.17;;;8.87;;
8333;SDS011;4204;43.004;23.052;2022-10-24T07:21:46;14.73;;;9.00;;
8333;SDS011;4204;43.004;23.052;2022-10-24T07:24:15;15.07;;;8.50;;
8333;SDS011;4204;43.004;23.052;2022-10-24T07:26:42;11.27;;;7.90;;
8333;SDS011;4204;43.004;23.052;2022-10-24T07:29:10;12.27;;;7.93;;
8333;SDS011;4204;43.004;23.052;2022-10-24T07:31:38;11.37;;;7.73;;
8333;SDS011;4204;43.004;23.052;2022-10-24T07:34:06;11.40;;;6.93;;
8333;SDS011;4204;43.004;23.052;2022-10-24T07:36:35;10.63;;;7.07;;
8333;SDS011;4204;43.004;23.052;2022-10-24T07:39:03;9.60;;;6.37;;
8333;SDS011;4204;43.004;23.052;2022-10-24T07:41:32;8.13;;;5.83;;
8333;SDS011;4204;43.004;23.052;2022-10-24T07:44:00;8.50;;;6.00;;
8333;SDS011;4204;43.004;23.052;2022-10-24T07:46:28;7.97;;;5.67;;
8333;SDS011;4204;43.004;23.052;2022-10-24T07:48:56;10.27;;;5.30;;
8333;SDS011;4204;43.004;23.052;2022-10-24T07:51:24;6.77;;;4.97;;
8333;SDS011;4204;43.004;23.052;2022-10-24T07:53:53;7.43;;;5.70;;
8333;SDS011;4204;43.004;23.052;2022-10-24T07:56:21;6.50;;;5.33;;
8333;SDS011;4204;43.004;23.052;2022-10-24T07:58:50;6.63;;;5.20;;
8333;SDS011;4204;43.004;23.052;2022-10-24T08:01:18;5.30;;;4.63;;
8333;SDS011;4204;43.004;23.052;2022-10-24T08:03:48;8.73;;;4.90;;
8333;SDS011;4204;43.004;23.052;2022-10-24T08:06:16;5.63;;;5.03;;
8333;SDS011;4204;43.004;23.052;2022-10-24T08:08:45;7.57;;;5.47;;
8333;SDS011;4204;43.004;23.052;2022-10-24T08:11:14;8.67;;;5.03;;
8333;SDS011;4204;43.004;23.052;2022-10-24T08:13:44;7.10;;;5.10;;
8333;SDS011;4204;43.004;23.052;2022-10-24T08:16:13;6.43;;;5.13;;
8333;SDS011;4204;43.004;23.052;2022-10-24T08:18:42;7.73;;;4.93;;
8333;SDS011;4204;43.004;23.052;2022-10-24T08:21:11;5.63;;;4.57;;
8333;SDS011;4204;43.004;23.052;2022-10-24T08:23:42;7.47;;;5.50;;
8333;SDS011;4204;43.004;23.052;2022-10-24T08:26:11;11.57;;;7.30;;
8333;SDS011;4204;43.004;23.052;2022-10-24T08:28:40;6.93;;;5.17;;
8333;SDS011;4204;43.004;23.052;2022-10-24T08:31:10;7.57;;;4.57;;
8333;SDS011;4204;43.004;23.052;2022-10-24T08:33:40;8.97;;;5.40;;
8333;SDS011;4204;43.004;23.052;2022-10-24T08:36:12;6.97;;;4.60;;
8333;SDS011;4204;43.004;23.052;2022-10-24T08:38:44;7.67;;;4.10;;
8333;SDS011;4204;43.004;23.052;2022-10-24T08:41:14;4.83;;;3.87;;
8333;SDS011;4204;43.004;23.052;2022-10-24T08:43:46;6.53;;;4.17;;
8333;SDS011;4204;43.004;23.052;2022-10-24T08:46:19;7.43;;;4.40;;
8333;SDS011;4204;43.004;23.052;2022-10-24T08:49:01;4.87;;;4.00;;
8333;SDS011;4204;43.004;23.052;2022-10-24T08:51:37;7.57;;;4.20;;
8333;SDS011;4204;43.004;23.052;2022-10-24T08:54:09;5.77;;;3.73;;
8333;SDS011;4204;43.004;23.052;2022-10-24T08:56:40;6.53;;;4.60;;
8333;SDS011;4204;43.004;23.052;2022-10-24T08:59:08;5.87;;;4.07;;
8333;SDS011;4204;43.004;23.052;2022-10-24T09:01:40;7.90;;;4.57;;
8333;SDS011;4204;43.004;23.052;2022-10-24T09:04:15;8.57;;;4.47;;
8333;SDS011;4204;43.004;23.052;2022-10-24T09:06:46;9.67;;;4.50;;
8333;SDS011;4204;43.004;23.052;2022-10-24T09:09:17;7.00;;;4.57;;
8333;SDS011;4204;43.004;23.052;2022-10-24T09:11:48;8.47;;;4.70;;
8333;SDS011;4204;43.004;23.052;2022-10-24T09:14:19;14.40;;;5.13;;
8333;SDS011;4204;43.004;23.052;2022-10-24T09:16:48;10.13;;;4.53;;
8333;SDS011;4204;43.004;23.052;2022-10-24T09:19:21;9.70;;;5.13;;
8333;SDS011;4204;43.004;23.052;2022-10-24T09:21:52;6.57;;;4.90;;
8333;SDS011;4204;43.004;23.052;2022-10-24T09:24:24;11.10;;;5.03;;
8333;SDS011;4204;43.004;23.052;2022-10-24T09:26:58;6.93;;;5.13;;
8333;SDS011;4204;43.004;23.052;2022-10-24T09:29:30;9.33;;;4.77;;
8333;SDS011;4204;43.004;23.052;2022-10-24T09:31:59;9.20;;;4.40;;
8333;SDS011;4204;43.004;23.052;2022-10-24T09:34:29;11.40;;;4.47;;
8333;SDS011;4204;43.004;23.052;2022-10-24T09:36:57;11.10;;;5.13;;
8333;SDS011;4204;43.004;23.052;2022-10-24T09:39:26;8.73;;;4.70;;
8333;SDS011;4204;43.004;23.052;2022-10-24T09:41:56;9.33;;;4.73;;
8333;SDS011;4204;43.004;23.052;2022-10-24T09:44:34;9.57;;;4.73;;
8333;SDS011;4204;43.004;23.052;2022-10-24T09:47:07;9.50;;;4.90;;
8333;SDS011;4204;43.004;23.052;2022-10-24T09:49:51;8.73;;;4.93;;
8333;SDS011;4204;43.004;23.052;2022-10-24T09:52:20;8.27;;;4.40;;
8333;SDS011;4204;43.004;23.052;2022-10-24T09:55:02;7.73;;;4.30;;
8333;SDS011;4204;43.004;23.052;2022-10-24T09:57:36;11.67;;;4.03;;
8333;SDS011;4204;43.004;23.052;2022-10-24T10:00:06;12.37;;;4.80;;
8333;SDS011;4204;43.004;23.052;2022-10-24T10:02:55;7.90;;;3.47;;
8333;SDS011;4204;43.004;23.052;2022-10-24T10:05:25;6.00;;;4.20;;
8333;SDS011;4204;43.004;23.052;2022-10-24T10:07:54;8.60;;;4.20;;
8333;SDS011;4204;43.004;23.052;2022-10-24T10:10:24;9.17;;;4.17;;
8333;SDS011;4204;43.004;23.052;2022-10-24T10:12:55;10.13;;;4.57;;
8333;SDS011;4204;43.004;23.052;2022-10-24T10:15:27;8.10;;;4.33;;
8333;SDS011;4204;43.004;23.052;2022-10-24T10:18:01;8.77;;;4.83;;
8333;SDS011;4204;43.004;23.052;2022-10-24T10:20:34;10.40;;;4.27;;
8333;SDS011;4204;43.004;23.052;2022-10-24T10:23:14;8.67;;;4.07;;
8333;SDS011;4204;43.004;23.052;2022-10-24T10:25:44;8.03;;;4.07;;
8333;SDS011;4204;43.004;23.052;2022-10-24T10:28:18;9.97;;;4.20;;
8333;SDS011;4204;43.004;23.052;2022-10-24T10:30:48;6.90;;;4.00;;
8333;SDS011;4204;43.004;23.052;2022-10-24T10:33:21;7.17;;;4.57;;
8333;SDS011;4204;43.004;23.052;2022-10-24T10:35:59;12.13;;;5.37;;
8333;SDS011;4204;43.004;23.052;2022-10-24T10:38:39;8.43;;;4.20;;
8333;SDS011;4204;43.004;23.052;2022-10-24T10:41:18;13.17;;;4.10;;
8333;SDS011;4204;43.004;23.052;2022-10-24T10:43:57;7.57;;;4.10;;
8333;SDS011;4204;43.004;23.052;2022-10-24T10:46:37;7.13;;;3.90;;
8333;SDS011;4204;43.004;23.052;2022-10-24T10:49:12;7.50;;;4.70;;
8333;SDS011;4204;43.004;23.052;2022-10-24T10:51:49;8.40;;;3.97;;
8333;SDS011;4204;43.004;23.052;2022-10-24T10:54:27;10.27;;;4.50;;
8333;SDS011;4204;43.004;23.052;2022-10-24T10:57:10;7.43;;;5.03;;
8333;SDS011;4204;43.004;23.052;2022-10-24T10:59:41;9.17;;;4.50;;
8333;SDS011;4204;43.004;23.052;2022-10-24T11:02:22;7.93;;;4.50;;
8333;SDS011;4204;43.004;23.052;2022-10-24T11:05:15;17.57;;;4.33;;
8333;SDS011;4204;43.004;23.052;2022-10-24T11:07:52;8.87;;;4.30;;
8333;SDS011;4204;43.004;23.052;2022-10-24T11:10:31;11.43;;;4.50;;
8333;SDS011;4204;43.004;23.052;2022-10-24T11:13:04;9.57;;;4.40;;
8333;SDS011;4204;43.004;23.052;2022-10-24T11:15:39;10.53;;;4.00;;
8333;SDS011;4204;43.004;23.052;2022-10-24T11:18:10;10.23;;;4.13;;
8333;SDS011;4204;43.004;23.052;2022-10-24T11:20:42;11.63;;;4.87;;
8333;SDS011;4204;43.004;23.052;2022-10-24T11:23:18;10.67;;;4.13;;
8333;SDS011;4204;43.004;23.052;2022-10-24T11:25:55;23.37;;;4.73;;
8333;SDS011;4204;43.004;23.052;2022-10-24T11:28:28;9.83;;;3.77;;
8333;SDS011;4204;43.004;23.052;2022-10-24T11:31:02;11.87;;;4.07;;
8333;SDS011;4204;43.004;23.052;2022-10-24T11:33:35;8.87;;;4.20;;
8333;SDS011;4204;43.004;23.052;2022-10-24T11:36:10;8.40;;;4.43;;
8333;SDS011;4204;43.004;23.052;2022-10-24T11:38:47;13.57;;;4.07;;
8333;SDS011;4204;43.004;23.052;2022-10-24T11:41:23;11.87;;;4.07;;
8333;SDS011;4204;43.004;23.052;2022-10-24T11:44:02;10.30;;;4.43;;
8333;SDS011;4204;43.004;23.052;2022-10-24T11:46:39;8.07;;;4.17;;
8333;SDS011;4204;43.004;23.052;2022-10-24T11:49:11;10.43;;;4.23;;
8333;SDS011;4204;43.004;23.052;2022-10-24T11:51:46;8.27;;;3.93;;
8333;SDS011;4204;43.004;23.052;2022-10-24T11:54:21;7.53;;;4.47;;
8333;SDS011;4204;43.004;23.052;2022-10-24T11:56:57;10.80;;;3.80;;
8333;SDS011;4204;43.004;23.052;2022-10-24T11:59:28;7.73;;;4.20;;
8333;SDS011;4204;43.004;23.052;2022-10-24T12:02:05;10.57;;;3.77;;
8333;SDS011;4204;43.004;23.052;2022-10-24T12:07:51;11.83;;;4.07;;
8333;SDS011;4204;43.004;23.052;2022-10-24T12:11:11;9.03;;;4.00;;
8333;SDS011;4204;43.004;23.052;2022-10-24T12:14:00;11.43;;;3.90;;
8333;SDS011;4204;43.004;23.052;2022-10-24T12:16:40;8.60;;;3.60;;
8333;SDS011;4204;43.004;23.052;2022-10-24T12:19:20;10.47;;;4.10;;
8333;SDS011;4204;43.004;23.052;2022-10-24T12:21:50;15.03;;;4.57;;
8333;SDS011;4204;43.004;23.052;2022-10-24T12:24:20;9.53;;;3.67;;
8333;SDS011;4204;43.004;23.052;2022-10-24T12:26:57;9.10;;;4.03;;
8333;SDS011;4204;43.004;23.052;2022-10-24T12:29:27;10.80;;;4.03;;
8333;SDS011;4204;43.004;23.052;2022-10-24T12:31:59;13.40;;;3.90;;
8333;SDS011;4204;43.004;23.052;2022-10-24T12:34:55;15.70;;;4.00;;
8333;SDS011;4204;43.004;23.052;2022-10-24T12:37:33;10.90;;;4.10;;
8333;SDS011;4204;43.004;23.052;2022-10-24T12:43:14;15.93;;;3.73;;
8333;SDS011;4204;43.004;23.052;2022-10-24T12:45:52;13.67;;;4.33;;
8333;SDS011;4204;43.004;23.052;2022-10-24T12:48:30;16.17;;;3.77;;
8333;SDS011;4204;43.004;23.052;2022-10-24T12:51:04;13.00;;;4.30;;
8333;SDS011;4204;43.004;23.052;2022-10-24T12:59:50;15.13;;;5.50;;
8333;SDS011;4204;43.004;23.052;2022-10-24T13:02:25;14.93;;;5.20;;
8333;SDS011;4204;43.004;23.052;2022-10-24T13:05:11;9.50;;;3.90;;
8333;SDS011;4204;43.004;23.052;2022-10-24T13:07:50;13.27;;;4.37;;
8333;SDS011;4204;43.004;23.052;2022-10-24T13:10:32;15.43;;;4.77;;
8333;SDS011;4204;43.004;23.052;2022-10-24T13:13:15;18.73;;;6.57;;
8333;SDS011;4204;43.004;23.052;2022-10-24T13:16:07;13.50;;;4.90;;
8333;SDS011;4204;43.004;23.052;2022-10-24T13:18:49;15.23;;;4.30;;
8333;SDS011;4204;43.004;23.052;2022-10-24T13:21:28;11.77;;;3.70;;
8333;SDS011;4204;43.004;23.052;2022-10-24T13:24:09;12.93;;;4.13;;
8333;SDS011;4204;43.004;23.052;2022-10-24T13:26:47;8.80;;;3.73;;
8333;SDS011;4204;43.004;23.052;2022-10-24T13:32:28;13.60;;;3.53;;
8333;SDS011;4204;43.004;23.052;2022-10-24T13:35:00;14.80;;;3.87;;
8333;SDS011;4204;43.004;23.052;2022-10-24T13:37:31;13.10;;;4.10;;
8333;SDS011;4204;43.004;23.052;2022-10-24T13:40:06;9.33;;;3.73;;
8333;SDS011;4204;43.004;23.052;2022-10-24T13:42:36;11.40;;;3.50;;
8333;SDS011;4204;43.004;23.052;2022-10-24T13:45:17;19.00;;;3.97;;
8333;SDS011;4204;43.004;23.052;2022-10-24T13:47:51;12.63;;;3.97;;
8333;SDS011;4204;43.004;23.052;2022-10-24T13:50:23;13.13;;;3.97;;
8333;SDS011;4204;43.004;23.052;2022-10-24T13:52:55;10.30;;;3.70;;
8333;SDS011;4204;43.004;23.052;2022-10-24T13:55:27;11.77;;;3.80;;
8333;SDS011;4204;43.004;23.052;2022-10-24T13:57:59;12.17;;;3.63;;
8333;SDS011;4204;43.004;23.052;2022-10-24T14:00:35;10.93;;;4.00;;
8333;SDS011;4204;43.004;23.052;2022-10-24T14:03:11;14.33;;;3.87;;
8333;SDS011;4204;43.004;23.052;2022-10-24T14:05:43;11.63;;;3.70;;
8333;SDS011;4204;43.004;23.052;2022-10-24T14:08:18;12.90;;;3.90;;
8333;SDS011;4204;43.004;23.052;2022-10-24T14:10:49;13.30;;;3.57;;
8333;SDS011;4204;43.004;23.052;2022-10-24T14:13:19;12.27;;;4.07;;
8333;SDS011;4204;43.004;23.052;2022-10-24T14:15:49;11.73;;;3.73;;
8333;SDS011;4204;43.004;23.052;2022-10-24T14:18:21;13.40;;;3.77;;
8333;SDS011;4204;43.004;23.052;2022-10-24T14:20:51;13.30;;;4.13;;
8333;SDS011;4204;43.004;23.052;2022-10-24T14:23:22;7.60;;;4.03;;
8333;SDS011;4204;43.004;23.052;2022-10-24T14:25:52;13.57;;;3.83;;
8333;SDS011;4204;43.004;23.052;2022-10-24T14:28:23;13.53;;;4.07;;
8333;SDS011;4204;43.004;23.052;2022-10-24T14:30:53;12.80;;;3.90;;
8333;SDS011;4204;43.004;23.052;2022-10-24T14:33:24;11.07;;;4.10;;
8333;SDS011;4204;43.004;23.052;2022-10-24T14:35:54;13.80;;;4.03;;
8333;SDS011;4204;43.004;23.052;2022-10-24T14:38:25;16.53;;;4.43;;
8333;SDS011;4204;43.004;23.052;2022-10-24T14:40:54;15.20;;;4.27;;
8333;SDS011;4204;43.004;23.052;2022-10-24T14:43:24;11.83;;;4.13;;
8333;SDS011;4204;43.004;23.052;2022-10-24T14:46:01;8.40;;;3.87;;
8333;SDS011;4204;43.004;23.052;2022-10-24T14:48:46;13.20;;;3.97;;
8333;SDS011;4204;43.004;23.052;2022-10-24T14:51:16;13.30;;;4.03;;
8333;SDS011;4204;43.004;23.052;2022-10-24T14:53:51;12.53;;;3.97;;
8333;SDS011;4204;43.004;23.052;2022-10-24T14:56:23;13.80;;;4.10;;
8333;SDS011;4204;43.004;23.052;2022-10-24T14:58:58;17.43;;;4.30;;
8333;SDS011;4204;43.004;23.052;2022-10-24T15:01:28;12.60;;;4.33;;
8333;SDS011;4204;43.004;23.052;2022-10-24T15:03:59;11.07;;;4.50;;
8333;SDS011;4204;43.004;23.052;2022-10-24T15:06:35;11.23;;;4.07;;
8333;SDS011;4204;43.004;23.052;2022-10-24T15:09:04;12.87;;;4.30;;
8333;SDS011;4204;43.004;23.052;2022-10-24T15:11:41;15.23;;;4.33;;
8333;SDS011;4204;43.004;23.052;2022-10-24T15:17:02;11.23;;;4.53;;
8333;SDS011;4204;43.004;23.052;2022-10-24T15:19:36;14.33;;;4.37;;
8333;SDS011;4204;43.004;23.052;2022-10-24T15:22:04;22.07;;;4.73;;
8333;SDS011;4204;43.004;23.052;2022-10-24T15:24:32;27.63;;;5.93;;
8333;SDS011;4204;43.004;23.052;2022-10-24T15:27:09;18.77;;;4.77;;
8333;SDS011;4204;43.004;23.052;2022-10-24T15:29:39;17.00;;;4.87;;
8333;SDS011;4204;43.004;23.052;2022-10-24T15:32:07;12.80;;;4.83;;
8333;SDS011;4204;43.004;23.052;2022-10-24T15:34:37;16.70;;;5.77;;
8333;SDS011;4204;43.004;23.052;2022-10-24T15:37:13;14.33;;;6.07;;
8333;SDS011;4204;43.004;23.052;2022-10-24T15:39:43;15.17;;;6.07;;
8333;SDS011;4204;43.004;23.052;2022-10-24T15:42:13;16.07;;;5.03;;
8333;SDS011;4204;43.004;23.052;2022-10-24T15:44:41;24.97;;;6.67;;